sensor_id;sensor_type;location;lat;lon;timestamp;P1;durP1;ratioP1;P2;durP2;ratioP2
8092;SDS011;4089;52.420;13.334;2023-08-30T00:01:04;28.50;;;3.87;;
8092;SDS011;4089;52.420;13.334;2023-08-30T00:03:31;33.70;;;4.70;;
8092;SDS011;4089;52.420;13.334;2023-08-30T00:06:02;28.53;;;3.10;;
8092;SDS011;4089;52.420;13.334;2023-08-30T00:08:30;27.50;;;3.13;;
8092;SDS011;4089;52.420;13.334;2023-08-30T00:10:58;26.80;;;3.37;;
8092;SDS011;4089;52.420;13.334;2023-08-30T00:13:25;28.90;;;3.00;;
8092;SDS011;4089;52.420;13.334;2023-08-30T00:15:52;28.63;;;3.70;;
8092;SDS011;4089;52.420;13.334;2023-08-30T00:18:19;27.30;;;3.00;;
8092;SDS011;4089;52.420;13.334;2023-08-30T00:20:46;28.07;;;3.97;;
8092;SDS011;4089;52.420;13.334;2023-08-30T00:23:13;27.30;;;3.13;;
8092;SDS011;4089;52.420;13.334;2023-08-30T00:25:40;27.67;;;3.37;;
8092;SDS011;4089;52.420;13.334;2023-08-30T00:28:07;27.87;;;3.30;;
8092;SDS011;4089;52.420;13.334;2023-08-30T00:30:34;29.53;;;3.20;;
8092;SDS011;4089;52.420;13.334;2023-08-30T00:33:01;34.20;;;3.20;;
8092;SDS011;4089;52.420;13.334;2023-08-30T00:35:28;29.90;;;3.67;;
8092;SDS011;4089;52.420;13.334;2023-08-30T00:37:55;28.20;;;3.10;;
8092;SDS011;4089;52.420;13.334;2023-08-30T00:40:23;28.40;;;3.20;;
8092;SDS011;4089;52.420;13.334;2023-08-30T00:42:51;28.97;;;3.20;;
8092;SDS011;4089;52.420;13.334;2023-08-30T00:45:18;31.53;;;3.90;;
8092;SDS011;4089;52.420;13.334;2023-08-30T00:47:45;31.77;;;3.80;;
8092;SDS011;4089;52.420;13.334;2023-08-30T00:50:12;30.20;;;4.00;;
8092;SDS011;4089;52.420;13.334;2023-08-30T00:52:40;28.03;;;3.50;;
8092;SDS011;4089;52.420;13.334;2023-08-30T00:55:07;27.63;;;3.20;;
8092;SDS011;4089;52.420;13.334;2023-08-30T00:57:35;28.27;;;3.37;;
8092;SDS011;4089;52.420;13.334;2023-08-30T01:00:03;28.90;;;3.60;;
8092;SDS011;4089;52.420;13.334;2023-08-30T01:02:32;30.27;;;4.07;;
8092;SDS011;4089;52.420;13.334;2023-08-30T01:04:59;27.67;;;3.50;;
8092;SDS011;4089;52.420;13.334;2023-08-30T01:07:26;27.60;;;3.70;;
8092;SDS011;4089;52.420;13.334;2023-08-30T01:09:53;28.17;;;3.83;;
8092;SDS011;4089;52.420;13.334;2023-08-30T01:12:22;29.70;;;4.00;;
8092;SDS011;4089;52.420;13.334;2023-08-30T01:14:58;27.37;;;3.40;;
8092;SDS011;4089;52.420;13.334;2023-08-30T01:17:28;32.47;;;3.40;;
8092;SDS011;4089;52.420;13.334;2023-08-30T01:20:05;27.87;;;3.60;;
8092;SDS011;4089;52.420;13.334;2023-08-30T01:22:53;30.23;;;3.80;;
8092;SDS011;4089;52.420;13.334;2023-08-30T01:28:29;31.37;;;3.83;;
8092;SDS011;4089;52.420;13.334;2023-08-30T01:30:57;32.07;;;3.73;;
8092;SDS011;4089;52.420;13.334;2023-08-30T01:33:25;29.00;;;3.87;;
8092;SDS011;4089;52.420;13.334;2023-08-30T01:35:54;30.50;;;3.80;;
8092;SDS011;4089;52.420;13.334;2023-08-30T01:38:25;30.07;;;3.80;;
8092;SDS011;4089;52.420;13.334;2023-08-30T01:40:54;27.37;;;3.20;;
8092;SDS011;4089;52.420;13.334;2023-08-30T01:43:24;30.20;;;3.70;;
8092;SDS011;4089;52.420;13.334;2023-08-30T01:45:55;30.87;;;3.87;;
8092;SDS011;4089;52.420;13.334;2023-08-30T01:48:23;28.40;;;3.60;;
8092;SDS011;4089;52.420;13.334;2023-08-30T01:50:52;31.23;;;3.50;;
8092;SDS011;4089;52.420;13.334;2023-08-30T01:53:20;29.70;;;4.40;;
8092;SDS011;4089;52.420;13.334;2023-08-30T01:55:48;29.60;;;3.80;;
8092;SDS011;4089;52.420;13.334;2023-08-30T01:58:15;30.33;;;4.17;;
8092;SDS011;4089;52.420;13.334;2023-08-30T02:00:42;29.43;;;3.40;;
8092;SDS011;4089;52.420;13.334;2023-08-30T02:03:10;29.50;;;3.70;;
8092;SDS011;4089;52.420;13.334;2023-08-30T02:05:39;28.13;;;3.67;;
8092;SDS011;4089;52.420;13.334;2023-08-30T02:08:15;30.57;;;4.10;;
8092;SDS011;4089;52.420;13.334;2023-08-30T02:10:45;29.87;;;4.00;;
8092;SDS011;4089;52.420;13.334;2023-08-30T02:13:19;30.70;;;4.40;;
8092;SDS011;4089;52.420;13.334;2023-08-30T02:15:56;30.60;;;5.30;;
8092;SDS011;4089;52.420;13.334;2023-08-30T02:18:25;29.63;;;4.03;;
8092;SDS011;4089;52.420;13.334;2023-08-30T02:20:53;29.50;;;4.17;;
8092;SDS011;4089;52.420;13.334;2023-08-30T02:23:25;31.13;;;4.10;;
8092;SDS011;4089;52.420;13.334;2023-08-30T02:25:53;28.97;;;4.47;;
8092;SDS011;4089;52.420;13.334;2023-08-30T02:28:20;27.07;;;3.40;;
8092;SDS011;4089;52.420;13.334;2023-08-30T02:30:47;28.63;;;4.43;;
8092;SDS011;4089;52.420;13.334;2023-08-30T02:33:14;28.50;;;3.90;;
8092;SDS011;4089;52.420;13.334;2023-08-30T02:35:41;29.20;;;4.47;;
8092;SDS011;4089;52.420;13.334;2023-08-30T02:38:08;32.10;;;5.80;;
8092;SDS011;4089;52.420;13.334;2023-08-30T02:40:35;31.47;;;4.10;;
8092;SDS011;4089;52.420;13.334;2023-08-30T02:43:02;28.47;;;4.00;;
8092;SDS011;4089;52.420;13.334;2023-08-30T02:45:29;31.30;;;3.80;;
8092;SDS011;4089;52.420;13.334;2023-08-30T02:47:55;31.30;;;4.63;;
8092;SDS011;4089;52.420;13.334;2023-08-30T02:50:23;28.23;;;3.97;;
8092;SDS011;4089;52.420;13.334;2023-08-30T02:52:50;33.40;;;4.50;;
8092;SDS011;4089;52.420;13.334;2023-08-30T02:55:18;31.53;;;5.17;;
8092;SDS011;4089;52.420;13.334;2023-08-30T02:57:45;32.93;;;6.10;;
8092;SDS011;4089;52.420;13.334;2023-08-30T03:00:12;30.30;;;4.33;;
8092;SDS011;4089;52.420;13.334;2023-08-30T03:02:40;31.83;;;5.20;;
8092;SDS011;4089;52.420;13.334;2023-08-30T03:05:07;32.10;;;5.60;;
8092;SDS011;4089;52.420;13.334;2023-08-30T03:07:34;31.23;;;5.30;;
8092;SDS011;4089;52.420;13.334;2023-08-30T03:10:01;30.87;;;5.03;;
8092;SDS011;4089;52.420;13.334;2023-08-30T03:12:29;39.00;;;5.43;;
8092;SDS011;4089;52.420;13.334;2023-08-30T03:14:56;36.33;;;4.93;;
8092;SDS011;4089;52.420;13.334;2023-08-30T03:17:23;32.00;;;5.03;;
8092;SDS011;4089;52.420;13.334;2023-08-30T03:19:53;32.27;;;4.83;;
8092;SDS011;4089;52.420;13.334;2023-08-30T03:22:21;36.90;;;4.60;;
8092;SDS011;4089;52.420;13.334;2023-08-30T03:24:48;29.50;;;3.70;;
8092;SDS011;4089;52.420;13.334;2023-08-30T03:27:16;29.60;;;4.97;;
8092;SDS011;4089;52.420;13.334;2023-08-30T03:29:43;29.67;;;3.77;;
8092;SDS011;4089;52.420;13.334;2023-08-30T03:32:10;35.60;;;4.60;;
8092;SDS011;4089;52.420;13.334;2023-08-30T03:34:39;30.27;;;4.60;;
8092;SDS011;4089;52.420;13.334;2023-08-30T03:37:06;29.07;;;4.50;;
8092;SDS011;4089;52.420;13.334;2023-08-30T03:39:33;33.47;;;5.33;;
8092;SDS011;4089;52.420;13.334;2023-08-30T03:42:00;31.30;;;5.30;;
8092;SDS011;4089;52.420;13.334;2023-08-30T03:44:27;30.67;;;4.27;;
8092;SDS011;4089;52.420;13.334;2023-08-30T03:46:54;35.87;;;5.57;;
8092;SDS011;4089;52.420;13.334;2023-08-30T03:49:23;34.77;;;4.80;;
8092;SDS011;4089;52.420;13.334;2023-08-30T03:51:49;37.50;;;5.83;;
8092;SDS011;4089;52.420;13.334;2023-08-30T03:54:16;34.33;;;6.23;;
8092;SDS011;4089;52.420;13.334;2023-08-30T03:56:43;31.70;;;5.17;;
8092;SDS011;4089;52.420;13.334;2023-08-30T03:59:13;32.27;;;4.80;;
8092;SDS011;4089;52.420;13.334;2023-08-30T04:01:40;31.77;;;5.27;;
8092;SDS011;4089;52.420;13.334;2023-08-30T04:04:07;33.70;;;5.20;;
8092;SDS011;4089;52.420;13.334;2023-08-30T04:06:34;30.27;;;5.23;;
8092;SDS011;4089;52.420;13.334;2023-08-30T04:09:01;30.60;;;4.93;;
8092;SDS011;4089;52.420;13.334;2023-08-30T04:11:27;36.13;;;6.40;;
8092;SDS011;4089;52.420;13.334;2023-08-30T04:13:54;35.17;;;5.50;;
8092;SDS011;4089;52.420;13.334;2023-08-30T04:16:21;29.13;;;5.10;;
8092;SDS011;4089;52.420;13.334;2023-08-30T04:18:48;30.40;;;5.20;;
8092;SDS011;4089;52.420;13.334;2023-08-30T04:21:15;36.23;;;6.43;;
8092;SDS011;4089;52.420;13.334;2023-08-30T04:23:41;30.37;;;5.87;;
8092;SDS011;4089;52.420;13.334;2023-08-30T04:26:08;34.67;;;6.20;;
8092;SDS011;4089;52.420;13.334;2023-08-30T04:28:35;32.60;;;6.00;;
8092;SDS011;4089;52.420;13.334;2023-08-30T04:31:02;34.03;;;6.50;;
8092;SDS011;4089;52.420;13.334;2023-08-30T04:33:29;32.17;;;5.57;;
8092;SDS011;4089;52.420;13.334;2023-08-30T04:35:55;31.00;;;5.30;;
8092;SDS011;4089;52.420;13.334;2023-08-30T04:38:22;32.63;;;5.83;;
8092;SDS011;4089;52.420;13.334;2023-08-30T04:40:49;32.60;;;5.63;;
8092;SDS011;4089;52.420;13.334;2023-08-30T04:43:16;34.80;;;5.93;;
8092;SDS011;4089;52.420;13.334;2023-08-30T04:45:43;32.77;;;5.67;;
8092;SDS011;4089;52.420;13.334;2023-08-30T04:48:13;29.17;;;5.07;;
8092;SDS011;4089;52.420;13.334;2023-08-30T04:50:40;29.83;;;5.40;;
8092;SDS011;4089;52.420;13.334;2023-08-30T04:53:07;30.50;;;5.20;;
8092;SDS011;4089;52.420;13.334;2023-08-30T04:55:34;31.47;;;5.90;;
8092;SDS011;4089;52.420;13.334;2023-08-30T04:58:00;31.80;;;5.37;;
8092;SDS011;4089;52.420;13.334;2023-08-30T05:00:27;31.20;;;5.23;;
8092;SDS011;4089;52.420;13.334;2023-08-30T05:02:54;30.87;;;6.10;;
8092;SDS011;4089;52.420;13.334;2023-08-30T05:05:21;31.40;;;6.00;;
8092;SDS011;4089;52.420;13.334;2023-08-30T05:07:48;31.97;;;6.37;;
8092;SDS011;4089;52.420;13.334;2023-08-30T05:10:15;30.27;;;5.27;;
8092;SDS011;4089;52.420;13.334;2023-08-30T05:12:42;32.00;;;6.20;;
8092;SDS011;4089;52.420;13.334;2023-08-30T05:15:14;31.30;;;5.33;;
8092;SDS011;4089;52.420;13.334;2023-08-30T05:17:40;33.40;;;7.00;;
8092;SDS011;4089;52.420;13.334;2023-08-30T05:20:07;33.60;;;6.63;;
8092;SDS011;4089;52.420;13.334;2023-08-30T05:22:35;34.03;;;7.50;;
8092;SDS011;4089;52.420;13.334;2023-08-30T05:25:02;33.17;;;5.87;;
8092;SDS011;4089;52.420;13.334;2023-08-30T05:27:29;31.90;;;6.13;;
8092;SDS011;4089;52.420;13.334;2023-08-30T05:29:55;36.60;;;6.10;;
8092;SDS011;4089;52.420;13.334;2023-08-30T05:32:22;34.30;;;7.00;;
8092;SDS011;4089;52.420;13.334;2023-08-30T05:34:49;35.40;;;6.87;;
8092;SDS011;4089;52.420;13.334;2023-08-30T05:37:16;31.27;;;5.50;;
8092;SDS011;4089;52.420;13.334;2023-08-30T05:39:43;31.80;;;5.40;;
8092;SDS011;4089;52.420;13.334;2023-08-30T05:42:10;29.27;;;5.43;;
8092;SDS011;4089;52.420;13.334;2023-08-30T05:44:36;33.57;;;6.30;;
8092;SDS011;4089;52.420;13.334;2023-08-30T05:47:04;34.80;;;6.90;;
8092;SDS011;4089;52.420;13.334;2023-08-30T05:49:31;31.70;;;6.10;;
8092;SDS011;4089;52.420;13.334;2023-08-30T05:51:58;31.67;;;6.43;;
8092;SDS011;4089;52.420;13.334;2023-08-30T05:54:24;31.77;;;6.23;;
8092;SDS011;4089;52.420;13.334;2023-08-30T05:56:55;32.47;;;7.23;;
8092;SDS011;4089;52.420;13.334;2023-08-30T05:59:22;32.97;;;7.43;;
8092;SDS011;4089;52.420;13.334;2023-08-30T06:01:49;32.97;;;6.53;;
8092;SDS011;4089;52.420;13.334;2023-08-30T06:04:16;34.30;;;6.43;;
8092;SDS011;4089;52.420;13.334;2023-08-30T06:06:43;35.10;;;6.87;;
8092;SDS011;4089;52.420;13.334;2023-08-30T06:09:10;30.50;;;6.53;;
8092;SDS011;4089;52.420;13.334;2023-08-30T06:11:38;34.93;;;6.57;;
8092;SDS011;4089;52.420;13.334;2023-08-30T06:14:05;29.40;;;5.50;;
8092;SDS011;4089;52.420;13.334;2023-08-30T06:16:32;32.97;;;6.27;;
8092;SDS011;4089;52.420;13.334;2023-08-30T06:18:59;32.57;;;6.60;;
8092;SDS011;4089;52.420;13.334;2023-08-30T06:21:26;33.00;;;6.70;;
8092;SDS011;4089;52.420;13.334;2023-08-30T06:23:52;31.90;;;6.50;;
8092;SDS011;4089;52.420;13.334;2023-08-30T06:26:19;32.30;;;6.80;;
8092;SDS011;4089;52.420;13.334;2023-08-30T06:28:46;32.37;;;6.07;;
8092;SDS011;4089;52.420;13.334;2023-08-30T06:31:29;30.70;;;6.53;;
8092;SDS011;4089;52.420;13.334;2023-08-30T06:33:56;30.37;;;6.50;;
8092;SDS011;4089;52.420;13.334;2023-08-30T06:36:23;33.67;;;6.00;;
8092;SDS011;4089;52.420;13.334;2023-08-30T06:38:50;28.20;;;5.40;;
8092;SDS011;4089;52.420;13.334;2023-08-30T06:41:16;29.40;;;5.60;;
8092;SDS011;4089;52.420;13.334;2023-08-30T06:43:43;29.30;;;5.47;;
8092;SDS011;4089;52.420;13.334;2023-08-30T06:46:10;31.00;;;5.53;;
8092;SDS011;4089;52.420;13.334;2023-08-30T06:48:37;29.27;;;5.70;;
8092;SDS011;4089;52.420;13.334;2023-08-30T06:51:03;31.80;;;5.47;;
8092;SDS011;4089;52.420;13.334;2023-08-30T06:53:30;29.03;;;5.90;;
8092;SDS011;4089;52.420;13.334;2023-08-30T06:55:58;30.00;;;5.43;;
8092;SDS011;4089;52.420;13.334;2023-08-30T06:58:25;31.80;;;6.10;;
8092;SDS011;4089;52.420;13.334;2023-08-30T07:00:52;30.93;;;5.60;;
8092;SDS011;4089;52.420;13.334;2023-08-30T07:03:20;30.13;;;5.37;;
8092;SDS011;4089;52.420;13.334;2023-08-30T07:05:46;27.60;;;5.00;;
8092;SDS011;4089;52.420;13.334;2023-08-30T07:08:14;33.60;;;6.27;;
8092;SDS011;4089;52.420;13.334;2023-08-30T07:10:41;30.17;;;5.80;;
8092;SDS011;4089;52.420;13.334;2023-08-30T07:13:08;30.00;;;5.30;;
8092;SDS011;4089;52.420;13.334;2023-08-30T07:15:40;29.80;;;5.23;;
8092;SDS011;4089;52.420;13.334;2023-08-30T07:18:08;29.53;;;5.50;;
8092;SDS011;4089;52.420;13.334;2023-08-30T07:20:38;31.97;;;6.00;;
8092;SDS011;4089;52.420;13.334;2023-08-30T07:23:05;29.17;;;4.77;;
8092;SDS011;4089;52.420;13.334;2023-08-30T07:25:36;29.63;;;4.63;;
8092;SDS011;4089;52.420;13.334;2023-08-30T07:28:04;29.17;;;5.30;;
8092;SDS011;4089;52.420;13.334;2023-08-30T07:30:32;28.30;;;5.23;;
8092;SDS011;4089;52.420;13.334;2023-08-30T07:33:01;31.37;;;4.67;;
8092;SDS011;4089;52.420;13.334;2023-08-30T07:35:31;35.30;;;4.90;;
8092;SDS011;4089;52.420;13.334;2023-08-30T07:37:59;26.00;;;3.40;;
8092;SDS011;4089;52.420;13.334;2023-08-30T07:40:26;28.23;;;3.70;;
8092;SDS011;4089;52.420;13.334;2023-08-30T07:42:54;24.37;;;2.60;;
8092;SDS011;4089;52.420;13.334;2023-08-30T07:45:25;25.80;;;3.40;;
8092;SDS011;4089;52.420;13.334;2023-08-30T07:47:52;25.60;;;2.67;;
8092;SDS011;4089;52.420;13.334;2023-08-30T07:50:18;25.80;;;2.60;;
8092;SDS011;4089;52.420;13.334;2023-08-30T07:52:45;28.23;;;2.53;;
8092;SDS011;4089;52.420;13.334;2023-08-30T07:55:12;26.03;;;3.30;;
8092;SDS011;4089;52.420;13.334;2023-08-30T07:57:40;28.77;;;3.73;;
8092;SDS011;4089;52.420;13.334;2023-08-30T08:00:07;27.40;;;3.10;;
8092;SDS011;4089;52.420;13.334;2023-08-30T08:02:34;28.70;;;2.57;;
8092;SDS011;4089;52.420;13.334;2023-08-30T08:05:01;30.90;;;2.37;;
8092;SDS011;4089;52.420;13.334;2023-08-30T08:07:28;25.67;;;3.10;;
8092;SDS011;4089;52.420;13.334;2023-08-30T08:09:56;23.97;;;2.00;;
8092;SDS011;4089;52.420;13.334;2023-08-30T08:12:23;25.17;;;2.33;;
8092;SDS011;4089;52.420;13.334;2023-08-30T08:14:50;26.00;;;2.60;;
8092;SDS011;4089;52.420;13.334;2023-08-30T08:17:17;26.17;;;2.70;;
8092;SDS011;4089;52.420;13.334;2023-08-30T08:19:44;25.43;;;2.57;;
8092;SDS011;4089;52.420;13.334;2023-08-30T08:22:11;26.00;;;3.00;;
8092;SDS011;4089;52.420;13.334;2023-08-30T08:24:38;27.00;;;2.23;;
8092;SDS011;4089;52.420;13.334;2023-08-30T08:27:05;32.30;;;3.10;;
8092;SDS011;4089;52.420;13.334;2023-08-30T08:29:32;32.33;;;3.50;;
8092;SDS011;4089;52.420;13.334;2023-08-30T08:31:59;25.37;;;3.43;;
8092;SDS011;4089;52.420;13.334;2023-08-30T08:34:26;25.30;;;2.63;;
8092;SDS011;4089;52.420;13.334;2023-08-30T08:36:53;26.87;;;2.70;;
8092;SDS011;4089;52.420;13.334;2023-08-30T08:39:20;24.27;;;2.10;;
8092;SDS011;4089;52.420;13.334;2023-08-30T08:41:47;26.00;;;2.50;;
8092;SDS011;4089;52.420;13.334;2023-08-30T08:44:14;25.47;;;2.30;;
8092;SDS011;4089;52.420;13.334;2023-08-30T08:46:42;27.17;;;2.50;;
8092;SDS011;4089;52.420;13.334;2023-08-30T08:49:14;28.70;;;3.00;;
8092;SDS011;4089;52.420;13.334;2023-08-30T08:51:42;25.77;;;3.10;;
8092;SDS011;4089;52.420;13.334;2023-08-30T08:54:10;26.60;;;3.40;;
8092;SDS011;4089;52.420;13.334;2023-08-30T08:56:38;25.03;;;2.90;;
8092;SDS011;4089;52.420;13.334;2023-08-30T08:59:06;27.20;;;3.23;;
8092;SDS011;4089;52.420;13.334;2023-08-30T09:01:35;24.80;;;2.33;;
8092;SDS011;4089;52.420;13.334;2023-08-30T09:04:06;24.97;;;2.80;;
8092;SDS011;4089;52.420;13.334;2023-08-30T09:06:34;27.60;;;2.53;;
8092;SDS011;4089;52.420;13.334;2023-08-30T09:09:02;24.77;;;2.63;;
8092;SDS011;4089;52.420;13.334;2023-08-30T09:11:34;24.80;;;2.07;;
8092;SDS011;4089;52.420;13.334;2023-08-30T09:14:17;27.70;;;2.00;;
8092;SDS011;4089;52.420;13.334;2023-08-30T09:16:54;23.70;;;2.30;;
8092;SDS011;4089;52.420;13.334;2023-08-30T09:19:26;24.00;;;2.60;;
8092;SDS011;4089;52.420;13.334;2023-08-30T09:21:54;26.23;;;2.53;;
8092;SDS011;4089;52.420;13.334;2023-08-30T09:24:22;24.13;;;2.40;;
8092;SDS011;4089;52.420;13.334;2023-08-30T09:26:49;28.17;;;2.37;;
8092;SDS011;4089;52.420;13.334;2023-08-30T09:29:18;27.77;;;3.30;;
8092;SDS011;4089;52.420;13.334;2023-08-30T09:31:46;27.43;;;2.67;;
8092;SDS011;4089;52.420;13.334;2023-08-30T09:34:16;26.77;;;2.87;;
8092;SDS011;4089;52.420;13.334;2023-08-30T09:36:43;24.77;;;2.87;;
8092;SDS011;4089;52.420;13.334;2023-08-30T09:39:13;30.03;;;2.83;;
8092;SDS011;4089;52.420;13.334;2023-08-30T09:41:41;26.83;;;3.40;;
8092;SDS011;4089;52.420;13.334;2023-08-30T09:44:09;24.70;;;2.80;;
8092;SDS011;4089;52.420;13.334;2023-08-30T09:46:41;28.57;;;2.53;;
8092;SDS011;4089;52.420;13.334;2023-08-30T09:49:18;23.80;;;2.50;;
8092;SDS011;4089;52.420;13.334;2023-08-30T09:51:50;24.90;;;2.23;;
8092;SDS011;4089;52.420;13.334;2023-08-30T09:54:22;25.67;;;2.97;;
8092;SDS011;4089;52.420;13.334;2023-08-30T09:57:05;24.10;;;2.40;;
8092;SDS011;4089;52.420;13.334;2023-08-30T09:59:32;25.27;;;2.30;;
8092;SDS011;4089;52.420;13.334;2023-08-30T10:01:59;25.93;;;2.47;;
8092;SDS011;4089;52.420;13.334;2023-08-30T10:04:27;24.37;;;2.17;;
8092;SDS011;4089;52.420;13.334;2023-08-30T10:06:55;25.00;;;2.10;;
8092;SDS011;4089;52.420;13.334;2023-08-30T10:09:23;25.60;;;2.13;;
8092;SDS011;4089;52.420;13.334;2023-08-30T10:11:50;22.90;;;1.60;;
8092;SDS011;4089;52.420;13.334;2023-08-30T10:14:17;23.97;;;2.00;;
8092;SDS011;4089;52.420;13.334;2023-08-30T10:16:47;23.73;;;1.70;;
8092;SDS011;4089;52.420;13.334;2023-08-30T10:19:16;24.60;;;1.70;;
8092;SDS011;4089;52.420;13.334;2023-08-30T10:21:47;24.67;;;1.57;;
8092;SDS011;4089;52.420;13.334;2023-08-30T10:24:19;25.50;;;1.37;;
8092;SDS011;4089;52.420;13.334;2023-08-30T10:27:01;24.00;;;1.67;;
8092;SDS011;4089;52.420;13.334;2023-08-30T10:29:31;22.87;;;1.37;;
8092;SDS011;4089;52.420;13.334;2023-08-30T10:32:06;24.10;;;1.80;;
8092;SDS011;4089;52.420;13.334;2023-08-30T10:34:34;23.63;;;1.60;;
8092;SDS011;4089;52.420;13.334;2023-08-30T10:37:02;24.57;;;1.40;;
8092;SDS011;4089;52.420;13.334;2023-08-30T10:39:39;23.90;;;1.53;;
8092;SDS011;4089;52.420;13.334;2023-08-30T10:42:12;24.97;;;1.70;;
8092;SDS011;4089;52.420;13.334;2023-08-30T10:44:51;23.73;;;1.50;;
8092;SDS011;4089;52.420;13.334;2023-08-30T10:47:37;25.23;;;1.90;;
8092;SDS011;4089;52.420;13.334;2023-08-30T10:50:09;31.33;;;1.70;;
8092;SDS011;4089;52.420;13.334;2023-08-30T10:52:38;28.00;;;2.03;;
8092;SDS011;4089;52.420;13.334;2023-08-30T10:57:33;26.10;;;2.00;;
8092;SDS011;4089;52.420;13.334;2023-08-30T11:00:03;26.77;;;1.67;;
8092;SDS011;4089;52.420;13.334;2023-08-30T11:02:31;25.13;;;1.60;;
8092;SDS011;4089;52.420;13.334;2023-08-30T11:04:59;26.63;;;1.80;;
8092;SDS011;4089;52.420;13.334;2023-08-30T11:07:26;27.03;;;1.70;;
8092;SDS011;4089;52.420;13.334;2023-08-30T11:09:54;26.63;;;2.17;;
8092;SDS011;4089;52.420;13.334;2023-08-30T11:12:20;25.20;;;1.77;;
8092;SDS011;4089;52.420;13.334;2023-08-30T11:14:51;24.27;;;1.67;;
8092;SDS011;4089;52.420;13.334;2023-08-30T11:17:19;24.37;;;1.40;;
8092;SDS011;4089;52.420;13.334;2023-08-30T11:19:46;25.57;;;1.90;;
8092;SDS011;4089;52.420;13.334;2023-08-30T11:22:15;26.90;;;1.70;;
8092;SDS011;4089;52.420;13.334;2023-08-30T11:24:45;23.60;;;1.33;;
8092;SDS011;4089;52.420;13.334;2023-08-30T11:27:14;26.47;;;1.40;;
8092;SDS011;4089;52.420;13.334;2023-08-30T11:29:44;24.10;;;1.60;;
8092;SDS011;4089;52.420;13.334;2023-08-30T11:32:10;24.70;;;1.43;;
8092;SDS011;4089;52.420;13.334;2023-08-30T11:34:37;25.27;;;1.53;;
8092;SDS011;4089;52.420;13.334;2023-08-30T11:37:04;25.53;;;1.57;;
8092;SDS011;4089;52.420;13.334;2023-08-30T11:39:31;24.93;;;1.40;;
8092;SDS011;4089;52.420;13.334;2023-08-30T11:41:58;25.00;;;1.50;;
8092;SDS011;4089;52.420;13.334;2023-08-30T11:44:44;25.33;;;1.53;;
8092;SDS011;4089;52.420;13.334;2023-08-30T11:47:13;26.07;;;1.70;;
8092;SDS011;4089;52.420;13.334;2023-08-30T11:49:53;26.40;;;1.53;;
8092;SDS011;4089;52.420;13.334;2023-08-30T11:52:24;25.20;;;1.93;;
8092;SDS011;4089;52.420;13.334;2023-08-30T11:54:51;25.27;;;1.63;;
8092;SDS011;4089;52.420;13.334;2023-08-30T11:57:19;25.37;;;1.80;;
8092;SDS011;4089;52.420;13.334;2023-08-30T11:59:47;26.97;;;2.07;;
8092;SDS011;4089;52.420;13.334;2023-08-30T12:02:15;27.60;;;2.00;;
8092;SDS011;4089;52.420;13.334;2023-08-30T12:04:44;25.00;;;1.77;;
8092;SDS011;4089;52.420;13.334;2023-08-30T12:07:27;25.80;;;1.90;;
8092;SDS011;4089;52.420;13.334;2023-08-30T12:10:07;30.13;;;2.40;;
8092;SDS011;4089;52.420;13.334;2023-08-30T12:12:35;27.33;;;2.07;;
8092;SDS011;4089;52.420;13.334;2023-08-30T12:15:12;25.10;;;1.70;;
8092;SDS011;4089;52.420;13.334;2023-08-30T12:17:40;30.40;;;1.60;;
8092;SDS011;4089;52.420;13.334;2023-08-30T12:20:17;26.23;;;1.60;;
8092;SDS011;4089;52.420;13.334;2023-08-30T12:22:47;25.50;;;1.80;;
8092;SDS011;4089;52.420;13.334;2023-08-30T12:25:15;24.07;;;1.40;;
8092;SDS011;4089;52.420;13.334;2023-08-30T12:27:47;24.40;;;1.77;;
8092;SDS011;4089;52.420;13.334;2023-08-30T12:30:17;29.87;;;1.73;;
8092;SDS011;4089;52.420;13.334;2023-08-30T12:32:44;24.47;;;1.73;;
8092;SDS011;4089;52.420;13.334;2023-08-30T12:35:12;25.83;;;2.10;;
8092;SDS011;4089;52.420;13.334;2023-08-30T12:37:39;25.50;;;1.47;;
8092;SDS011;4089;52.420;13.334;2023-08-30T12:42:41;27.07;;;1.87;;
8092;SDS011;4089;52.420;13.334;2023-08-30T12:45:08;28.30;;;1.40;;
8092;SDS011;4089;52.420;13.334;2023-08-30T12:47:36;26.80;;;1.70;;
8092;SDS011;4089;52.420;13.334;2023-08-30T12:50:03;29.17;;;1.37;;
8092;SDS011;4089;52.420;13.334;2023-08-30T12:52:30;25.57;;;1.70;;
8092;SDS011;4089;52.420;13.334;2023-08-30T12:54:58;24.97;;;1.60;;
8092;SDS011;4089;52.420;13.334;2023-08-30T12:57:24;25.57;;;1.30;;
8092;SDS011;4089;52.420;13.334;2023-08-30T12:59:52;25.73;;;1.50;;
8092;SDS011;4089;52.420;13.334;2023-08-30T13:02:19;26.00;;;1.50;;
8092;SDS011;4089;52.420;13.334;2023-08-30T13:04:47;24.93;;;1.67;;
8092;SDS011;4089;52.420;13.334;2023-08-30T13:07:13;25.90;;;1.37;;
8092;SDS011;4089;52.420;13.334;2023-08-30T13:09:40;25.57;;;1.60;;
8092;SDS011;4089;52.420;13.334;2023-08-30T13:12:07;25.80;;;1.80;;
8092;SDS011;4089;52.420;13.334;2023-08-30T13:14:34;25.00;;;1.83;;
8092;SDS011;4089;52.420;13.334;2023-08-30T13:17:01;26.67;;;2.07;;
8092;SDS011;4089;52.420;13.334;2023-08-30T13:19:29;25.77;;;1.87;;
8092;SDS011;4089;52.420;13.334;2023-08-30T13:21:55;24.30;;;1.30;;
8092;SDS011;4089;52.420;13.334;2023-08-30T13:24:22;26.47;;;2.10;;
8092;SDS011;4089;52.420;13.334;2023-08-30T13:26:49;27.00;;;2.03;;
8092;SDS011;4089;52.420;13.334;2023-08-30T13:29:16;25.37;;;2.00;;
8092;SDS011;4089;52.420;13.334;2023-08-30T13:31:43;26.20;;;1.80;;
8092;SDS011;4089;52.420;13.334;2023-08-30T13:34:10;26.10;;;1.80;;
8092;SDS011;4089;52.420;13.334;2023-08-30T13:36:36;28.50;;;1.90;;
8092;SDS011;4089;52.420;13.334;2023-08-30T13:39:05;25.40;;;1.80;;
8092;SDS011;4089;52.420;13.334;2023-08-30T13:41:32;27.83;;;1.60;;
8092;SDS011;4089;52.420;13.334;2023-08-30T13:43:59;25.43;;;1.87;;
8092;SDS011;4089;52.420;13.334;2023-08-30T13:46:28;24.23;;;1.30;;
8092;SDS011;4089;52.420;13.334;2023-08-30T13:48:55;26.07;;;1.90;;
8092;SDS011;4089;52.420;13.334;2023-08-30T13:51:22;26.10;;;2.00;;
8092;SDS011;4089;52.420;13.334;2023-08-30T13:53:50;24.70;;;1.53;;
8092;SDS011;4089;52.420;13.334;2023-08-30T13:56:20;28.00;;;2.10;;
8092;SDS011;4089;52.420;13.334;2023-08-30T13:58:47;26.50;;;1.60;;
8092;SDS011;4089;52.420;13.334;2023-08-30T14:01:14;30.90;;;1.77;;
8092;SDS011;4089;52.420;13.334;2023-08-30T14:03:41;29.80;;;1.80;;
8092;SDS011;4089;52.420;13.334;2023-08-30T14:06:08;25.10;;;2.07;;
8092;SDS011;4089;52.420;13.334;2023-08-30T14:08:35;25.63;;;1.80;;
8092;SDS011;4089;52.420;13.334;2023-08-30T14:11:02;26.70;;;2.10;;
8092;SDS011;4089;52.420;13.334;2023-08-30T14:13:30;26.30;;;2.50;;
8092;SDS011;4089;52.420;13.334;2023-08-30T14:16:00;26.57;;;1.80;;
8092;SDS011;4089;52.420;13.334;2023-08-30T14:18:27;24.93;;;1.50;;
8092;SDS011;4089;52.420;13.334;2023-08-30T14:20:57;26.27;;;2.33;;
8092;SDS011;4089;52.420;13.334;2023-08-30T14:23:25;26.57;;;1.90;;
8092;SDS011;4089;52.420;13.334;2023-08-30T14:26:10;26.53;;;2.00;;
8092;SDS011;4089;52.420;13.334;2023-08-30T14:28:39;31.10;;;2.37;;
8092;SDS011;4089;52.420;13.334;2023-08-30T14:31:09;28.67;;;2.50;;
8092;SDS011;4089;52.420;13.334;2023-08-30T14:33:37;28.43;;;1.90;;
8092;SDS011;4089;52.420;13.334;2023-08-30T14:36:10;28.27;;;1.30;;
8092;SDS011;4089;52.420;13.334;2023-08-30T14:38:37;28.00;;;1.63;;
8092;SDS011;4089;52.420;13.334;2023-08-30T14:41:05;27.20;;;1.50;;
8092;SDS011;4089;52.420;13.334;2023-08-30T14:43:32;27.80;;;1.93;;
8092;SDS011;4089;52.420;13.334;2023-08-30T14:46:01;27.47;;;1.73;;
8092;SDS011;4089;52.420;13.334;2023-08-30T14:48:37;30.40;;;1.53;;
8092;SDS011;4089;52.420;13.334;2023-08-30T14:51:04;27.10;;;1.50;;
8092;SDS011;4089;52.420;13.334;2023-08-30T14:53:32;26.97;;;1.33;;
8092;SDS011;4089;52.420;13.334;2023-08-30T14:55:59;26.50;;;1.40;;
8092;SDS011;4089;52.420;13.334;2023-08-30T14:58:27;26.80;;;1.60;;
8092;SDS011;4089;52.420;13.334;2023-08-30T15:00:54;26.17;;;1.30;;
8092;SDS011;4089;52.420;13.334;2023-08-30T15:03:21;27.40;;;1.40;;